sensor_id;sensor_type;location;lat;lon;timestamp;P1;durP1;ratioP1;P2;durP2;ratioP2
57297;SDS011;43147;50.972;18.210;2022-11-20T00:00:47;60.50;;;24.30;;
57297;SDS011;43147;50.972;18.210;2022-11-20T00:03:12;63.90;;;22.30;;
57297;SDS011;43147;50.972;18.210;2022-11-20T00:05:38;65.60;;;25.70;;
57297;SDS011;43147;50.972;18.210;2022-11-20T00:08:03;63.50;;;24.60;;
57297;SDS011;43147;50.972;18.210;2022-11-20T00:10:29;58.20;;;21.50;;
57297;SDS011;43147;50.972;18.210;2022-11-20T00:12:54;64.70;;;24.60;;
57297;SDS011;43147;50.972;18.210;2022-11-20T00:15:20;60.70;;;24.00;;
57297;SDS011;43147;50.972;18.210;2022-11-20T00:17:47;76.60;;;26.40;;
57297;SDS011;43147;50.972;18.210;2022-11-20T00:20:13;64.70;;;24.10;;
57297;SDS011;43147;50.972;18.210;2022-11-20T00:22:39;61.40;;;22.60;;
57297;SDS011;43147;50.972;18.210;2022-11-20T00:25:05;70.70;;;24.10;;
57297;SDS011;43147;50.972;18.210;2022-11-20T00:27:31;67.20;;;24.10;;
57297;SDS011;43147;50.972;18.210;2022-11-20T00:29:57;62.80;;;25.30;;
57297;SDS011;43147;50.972;18.210;2022-11-20T00:32:23;68.50;;;26.10;;
57297;SDS011;43147;50.972;18.210;2022-11-20T00:34:48;93.50;;;27.90;;
57297;SDS011;43147;50.972;18.210;2022-11-20T00:37:14;65.50;;;27.70;;
57297;SDS011;43147;50.972;18.210;2022-11-20T00:39:39;84.50;;;29.30;;
57297;SDS011;43147;50.972;18.210;2022-11-20T00:42:04;85.50;;;28.90;;
57297;SDS011;43147;50.972;18.210;2022-11-20T00:44:30;65.80;;;29.30;;
57297;SDS011;43147;50.972;18.210;2022-11-20T00:46:56;99.20;;;32.50;;
57297;SDS011;43147;50.972;18.210;2022-11-20T00:49:21;85.50;;;33.40;;
57297;SDS011;43147;50.972;18.210;2022-11-20T00:51:47;93.40;;;31.90;;
57297;SDS011;43147;50.972;18.210;2022-11-20T00:54:12;95.20;;;35.20;;
57297;SDS011;43147;50.972;18.210;2022-11-20T00:56:38;112.40;;;34.30;;
57297;SDS011;43147;50.972;18.210;2022-11-20T00:59:03;104.40;;;34.50;;
57297;SDS011;43147;50.972;18.210;2022-11-20T01:01:29;130.20;;;35.80;;
57297;SDS011;43147;50.972;18.210;2022-11-20T01:03:56;115.00;;;35.40;;
57297;SDS011;43147;50.972;18.210;2022-11-20T01:06:24;91.00;;;35.40;;
57297;SDS011;43147;50.972;18.210;2022-11-20T01:08:54;85.20;;;31.40;;
57297;SDS011;43147;50.972;18.210;2022-11-20T01:11:23;81.50;;;32.20;;
57297;SDS011;43147;50.972;18.210;2022-11-20T01:13:51;83.50;;;30.50;;
57297;SDS011;43147;50.972;18.210;2022-11-20T01:18:44;76.90;;;31.40;;
57297;SDS011;43147;50.972;18.210;2022-11-20T01:21:12;85.60;;;32.40;;
57297;SDS011;43147;50.972;18.210;2022-11-20T01:23:42;87.20;;;31.60;;
57297;SDS011;43147;50.972;18.210;2022-11-20T01:26:09;77.20;;;31.00;;
57297;SDS011;43147;50.972;18.210;2022-11-20T01:28:40;85.80;;;30.00;;
57297;SDS011;43147;50.972;18.210;2022-11-20T01:31:13;83.20;;;31.10;;
57297;SDS011;43147;50.972;18.210;2022-11-20T01:33:43;67.80;;;26.40;;
57297;SDS011;43147;50.972;18.210;2022-11-20T01:36:09;79.00;;;29.70;;
57297;SDS011;43147;50.972;18.210;2022-11-20T01:38:36;78.60;;;26.70;;
57297;SDS011;43147;50.972;18.210;2022-11-20T01:41:02;77.30;;;27.50;;
57297;SDS011;43147;50.972;18.210;2022-11-20T01:43:27;68.50;;;25.70;;
57297;SDS011;43147;50.972;18.210;2022-11-20T01:46:04;69.20;;;25.70;;
57297;SDS011;43147;50.972;18.210;2022-11-20T01:48:42;70.80;;;24.70;;
57297;SDS011;43147;50.972;18.210;2022-11-20T01:51:21;82.50;;;26.80;;
57297;SDS011;43147;50.972;18.210;2022-11-20T01:53:53;70.60;;;26.90;;
57297;SDS011;43147;50.972;18.210;2022-11-20T01:56:21;61.30;;;23.10;;
57297;SDS011;43147;50.972;18.210;2022-11-20T01:58:48;63.10;;;25.20;;
57297;SDS011;43147;50.972;18.210;2022-11-20T02:01:16;70.30;;;26.20;;
57297;SDS011;43147;50.972;18.210;2022-11-20T02:03:42;72.20;;;26.90;;
57297;SDS011;43147;50.972;18.210;2022-11-20T02:06:13;70.70;;;25.60;;
57297;SDS011;43147;50.972;18.210;2022-11-20T02:08:42;67.90;;;24.30;;
57297;SDS011;43147;50.972;18.210;2022-11-20T02:11:08;67.70;;;24.80;;
57297;SDS011;43147;50.972;18.210;2022-11-20T02:13:34;73.40;;;25.30;;
57297;SDS011;43147;50.972;18.210;2022-11-20T02:16:15;79.70;;;26.10;;
57297;SDS011;43147;50.972;18.210;2022-11-20T02:18:44;63.30;;;24.70;;
57297;SDS011;43147;50.972;18.210;2022-11-20T02:26:27;70.10;;;23.60;;
57297;SDS011;43147;50.972;18.210;2022-11-20T02:28:54;58.80;;;22.70;;
57297;SDS011;43147;50.972;18.210;2022-11-20T02:31:19;59.40;;;23.60;;
57297;SDS011;43147;50.972;18.210;2022-11-20T02:33:45;65.70;;;25.00;;
57297;SDS011;43147;50.972;18.210;2022-11-20T02:36:11;66.50;;;24.20;;
57297;SDS011;43147;50.972;18.210;2022-11-20T02:38:39;61.60;;;23.90;;
57297;SDS011;43147;50.972;18.210;2022-11-20T02:41:05;64.40;;;24.10;;
57297;SDS011;43147;50.972;18.210;2022-11-20T02:43:31;69.60;;;25.90;;
57297;SDS011;43147;50.972;18.210;2022-11-20T02:45:58;60.20;;;23.40;;
57297;SDS011;43147;50.972;18.210;2022-11-20T02:48:26;58.60;;;22.10;;
57297;SDS011;43147;50.972;18.210;2022-11-20T02:50:52;66.70;;;22.90;;
57297;SDS011;43147;50.972;18.210;2022-11-20T02:53:17;56.00;;;22.90;;
57297;SDS011;43147;50.972;18.210;2022-11-20T02:55:45;67.00;;;21.30;;
57297;SDS011;43147;50.972;18.210;2022-11-20T02:58:11;64.60;;;23.80;;
57297;SDS011;43147;50.972;18.210;2022-11-20T03:00:36;67.70;;;26.30;;
57297;SDS011;43147;50.972;18.210;2022-11-20T03:03:02;77.70;;;29.10;;
57297;SDS011;43147;50.972;18.210;2022-11-20T03:05:27;75.60;;;29.70;;
57297;SDS011;43147;50.972;18.210;2022-11-20T03:07:52;80.60;;;27.30;;
57297;SDS011;43147;50.972;18.210;2022-11-20T03:10:18;73.40;;;28.10;;
57297;SDS011;43147;50.972;18.210;2022-11-20T03:12:43;90.30;;;31.60;;
57297;SDS011;43147;50.972;18.210;2022-11-20T03:15:09;110.70;;;33.40;;
57297;SDS011;43147;50.972;18.210;2022-11-20T03:17:35;101.20;;;35.00;;
57297;SDS011;43147;50.972;18.210;2022-11-20T03:20:01;100.30;;;34.20;;
57297;SDS011;43147;50.972;18.210;2022-11-20T03:22:28;92.00;;;32.30;;
57297;SDS011;43147;50.972;18.210;2022-11-20T03:24:54;106.90;;;34.20;;
57297;SDS011;43147;50.972;18.210;2022-11-20T03:27:20;103.10;;;34.40;;
57297;SDS011;43147;50.972;18.210;2022-11-20T03:29:45;93.90;;;34.30;;
57297;SDS011;43147;50.972;18.210;2022-11-20T03:32:11;89.80;;;31.90;;
57297;SDS011;43147;50.972;18.210;2022-11-20T03:34:36;87.60;;;31.70;;
57297;SDS011;43147;50.972;18.210;2022-11-20T03:37:02;90.10;;;30.50;;
57297;SDS011;43147;50.972;18.210;2022-11-20T03:39:27;85.70;;;32.10;;
57297;SDS011;43147;50.972;18.210;2022-11-20T03:41:55;77.40;;;29.10;;
57297;SDS011;43147;50.972;18.210;2022-11-20T03:44:21;77.80;;;28.60;;
57297;SDS011;43147;50.972;18.210;2022-11-20T03:46:46;94.10;;;29.00;;
57297;SDS011;43147;50.972;18.210;2022-11-20T03:49:12;70.90;;;29.10;;
57297;SDS011;43147;50.972;18.210;2022-11-20T03:51:37;85.20;;;30.00;;
57297;SDS011;43147;50.972;18.210;2022-11-20T03:54:04;86.00;;;31.10;;
57297;SDS011;43147;50.972;18.210;2022-11-20T03:56:34;94.60;;;32.20;;
57297;SDS011;43147;50.972;18.210;2022-11-20T03:59:02;115.00;;;34.50;;
57297;SDS011;43147;50.972;18.210;2022-11-20T04:01:29;97.30;;;35.20;;
57297;SDS011;43147;50.972;18.210;2022-11-20T04:03:56;98.30;;;35.00;;
57297;SDS011;43147;50.972;18.210;2022-11-20T04:06:23;105.90;;;33.70;;
57297;SDS011;43147;50.972;18.210;2022-11-20T04:08:50;95.60;;;30.60;;
57297;SDS011;43147;50.972;18.210;2022-11-20T04:11:17;91.20;;;32.70;;
57297;SDS011;43147;50.972;18.210;2022-11-20T04:13:47;81.80;;;30.70;;
57297;SDS011;43147;50.972;18.210;2022-11-20T04:16:15;92.70;;;32.30;;
57297;SDS011;43147;50.972;18.210;2022-11-20T04:18:41;113.60;;;40.80;;
57297;SDS011;43147;50.972;18.210;2022-11-20T04:21:06;94.90;;;34.90;;
57297;SDS011;43147;50.972;18.210;2022-11-20T04:23:32;106.90;;;37.60;;
57297;SDS011;43147;50.972;18.210;2022-11-20T04:26:08;105.90;;;37.60;;
57297;SDS011;43147;50.972;18.210;2022-11-20T04:28:35;119.70;;;39.30;;
57297;SDS011;43147;50.972;18.210;2022-11-20T04:31:04;119.00;;;40.20;;
57297;SDS011;43147;50.972;18.210;2022-11-20T04:33:35;129.00;;;40.00;;
57297;SDS011;43147;50.972;18.210;2022-11-20T04:36:03;124.50;;;39.20;;
57297;SDS011;43147;50.972;18.210;2022-11-20T04:38:30;107.60;;;36.70;;
57297;SDS011;43147;50.972;18.210;2022-11-20T04:40:56;90.80;;;33.00;;
57297;SDS011;43147;50.972;18.210;2022-11-20T04:43:31;91.60;;;32.90;;
57297;SDS011;43147;50.972;18.210;2022-11-20T04:45:58;92.20;;;34.60;;
57297;SDS011;43147;50.972;18.210;2022-11-20T04:48:24;99.40;;;35.50;;
57297;SDS011;43147;50.972;18.210;2022-11-20T04:50:50;102.30;;;33.80;;
57297;SDS011;43147;50.972;18.210;2022-11-20T04:53:16;97.40;;;35.20;;
57297;SDS011;43147;50.972;18.210;2022-11-20T04:55:42;109.00;;;35.10;;
57297;SDS011;43147;50.972;18.210;2022-11-20T04:58:07;84.10;;;33.50;;
57297;SDS011;43147;50.972;18.210;2022-11-20T05:00:33;97.30;;;35.50;;
57297;SDS011;43147;50.972;18.210;2022-11-20T05:02:58;98.70;;;34.50;;
57297;SDS011;43147;50.972;18.210;2022-11-20T05:05:24;108.90;;;37.80;;
57297;SDS011;43147;50.972;18.210;2022-11-20T05:07:50;90.80;;;34.00;;
57297;SDS011;43147;50.972;18.210;2022-11-20T05:10:15;116.30;;;39.40;;
57297;SDS011;43147;50.972;18.210;2022-11-20T05:12:41;85.70;;;35.10;;
57297;SDS011;43147;50.972;18.210;2022-11-20T05:15:06;107.30;;;37.10;;
57297;SDS011;43147;50.972;18.210;2022-11-20T05:17:32;111.90;;;38.70;;
57297;SDS011;43147;50.972;18.210;2022-11-20T05:19:57;113.40;;;40.80;;
57297;SDS011;43147;50.972;18.210;2022-11-20T05:22:23;113.10;;;38.10;;
57297;SDS011;43147;50.972;18.210;2022-11-20T05:24:48;108.50;;;35.60;;
57297;SDS011;43147;50.972;18.210;2022-11-20T05:27:14;114.10;;;38.30;;
57297;SDS011;43147;50.972;18.210;2022-11-20T05:29:40;109.40;;;36.90;;
57297;SDS011;43147;50.972;18.210;2022-11-20T05:32:05;122.30;;;39.00;;
57297;SDS011;43147;50.972;18.210;2022-11-20T05:34:32;105.50;;;39.00;;
57297;SDS011;43147;50.972;18.210;2022-11-20T05:36:58;136.40;;;44.20;;
57297;SDS011;43147;50.972;18.210;2022-11-20T05:39:23;115.80;;;40.40;;
57297;SDS011;43147;50.972;18.210;2022-11-20T05:41:48;107.20;;;39.90;;
57297;SDS011;43147;50.972;18.210;2022-11-20T05:44:34;122.10;;;41.70;;
57297;SDS011;43147;50.972;18.210;2022-11-20T05:46:59;103.90;;;41.40;;
57297;SDS011;43147;50.972;18.210;2022-11-20T05:49:25;107.40;;;40.60;;
57297;SDS011;43147;50.972;18.210;2022-11-20T05:51:51;129.70;;;44.00;;
57297;SDS011;43147;50.972;18.210;2022-11-20T05:54:16;116.70;;;41.60;;
57297;SDS011;43147;50.972;18.210;2022-11-20T05:56:42;114.10;;;37.90;;
57297;SDS011;43147;50.972;18.210;2022-11-20T05:59:08;119.70;;;41.50;;
57297;SDS011;43147;50.972;18.210;2022-11-20T06:01:33;129.10;;;42.40;;
57297;SDS011;43147;50.972;18.210;2022-11-20T06:04:01;106.50;;;39.10;;
57297;SDS011;43147;50.972;18.210;2022-11-20T06:06:27;126.20;;;42.50;;
57297;SDS011;43147;50.972;18.210;2022-11-20T06:08:54;121.60;;;40.90;;
57297;SDS011;43147;50.972;18.210;2022-11-20T06:11:19;134.50;;;47.00;;
57297;SDS011;43147;50.972;18.210;2022-11-20T06:13:45;113.20;;;42.40;;
57297;SDS011;43147;50.972;18.210;2022-11-20T06:16:11;165.70;;;55.20;;
57297;SDS011;43147;50.972;18.210;2022-11-20T06:18:38;163.10;;;53.40;;
57297;SDS011;43147;50.972;18.210;2022-11-20T06:21:05;148.70;;;47.30;;
57297;SDS011;43147;50.972;18.210;2022-11-20T06:23:32;168.00;;;56.00;;
57297;SDS011;43147;50.972;18.210;2022-11-20T06:26:03;136.80;;;46.10;;
57297;SDS011;43147;50.972;18.210;2022-11-20T06:28:29;168.70;;;50.20;;
57297;SDS011;43147;50.972;18.210;2022-11-20T06:30:55;152.10;;;50.10;;
57297;SDS011;43147;50.972;18.210;2022-11-20T06:33:20;172.60;;;52.90;;
57297;SDS011;43147;50.972;18.210;2022-11-20T06:35:46;164.30;;;55.10;;
57297;SDS011;43147;50.972;18.210;2022-11-20T06:38:11;168.80;;;59.10;;
57297;SDS011;43147;50.972;18.210;2022-11-20T06:40:43;168.00;;;59.90;;
57297;SDS011;43147;50.972;18.210;2022-11-20T06:43:09;175.20;;;58.80;;
57297;SDS011;43147;50.972;18.210;2022-11-20T06:45:35;178.20;;;60.90;;
57297;SDS011;43147;50.972;18.210;2022-11-20T06:48:03;166.60;;;61.00;;
57297;SDS011;43147;50.972;18.210;2022-11-20T06:50:29;182.50;;;67.40;;
57297;SDS011;43147;50.972;18.210;2022-11-20T06:52:55;196.00;;;69.70;;
57297;SDS011;43147;50.972;18.210;2022-11-20T06:55:20;196.40;;;69.90;;
57297;SDS011;43147;50.972;18.210;2022-11-20T06:57:46;199.10;;;72.60;;
57297;SDS011;43147;50.972;18.210;2022-11-20T07:00:12;180.20;;;65.20;;
57297;SDS011;43147;50.972;18.210;2022-11-20T07:02:38;182.70;;;66.00;;
57297;SDS011;43147;50.972;18.210;2022-11-20T07:05:03;183.70;;;67.70;;
57297;SDS011;43147;50.972;18.210;2022-11-20T07:07:29;182.40;;;67.30;;
57297;SDS011;43147;50.972;18.210;2022-11-20T07:09:55;168.60;;;66.60;;
57297;SDS011;43147;50.972;18.210;2022-11-20T07:12:21;167.80;;;70.20;;
57297;SDS011;43147;50.972;18.210;2022-11-20T07:14:46;174.20;;;74.40;;
57297;SDS011;43147;50.972;18.210;2022-11-20T07:17:11;182.70;;;76.30;;
57297;SDS011;43147;50.972;18.210;2022-11-20T07:19:38;164.60;;;74.30;;
57297;SDS011;43147;50.972;18.210;2022-11-20T07:22:04;152.40;;;67.90;;
57297;SDS011;43147;50.972;18.210;2022-11-20T07:24:32;173.70;;;75.00;;
57297;SDS011;43147;50.972;18.210;2022-11-20T07:26:57;173.90;;;76.80;;
57297;SDS011;43147;50.972;18.210;2022-11-20T07:29:23;199.00;;;84.30;;
57297;SDS011;43147;50.972;18.210;2022-11-20T07:31:48;195.90;;;83.80;;
57297;SDS011;43147;50.972;18.210;2022-11-20T07:34:14;185.60;;;82.40;;
57297;SDS011;43147;50.972;18.210;2022-11-20T07:36:39;194.20;;;87.40;;
57297;SDS011;43147;50.972;18.210;2022-11-20T07:39:05;204.40;;;89.50;;
57297;SDS011;43147;50.972;18.210;2022-11-20T07:41:30;184.90;;;83.10;;
57297;SDS011;43147;50.972;18.210;2022-11-20T07:43:56;163.60;;;79.60;;
57297;SDS011;43147;50.972;18.210;2022-11-20T07:46:21;167.90;;;85.10;;
57297;SDS011;43147;50.972;18.210;2022-11-20T07:48:47;148.90;;;87.30;;
57297;SDS011;43147;50.972;18.210;2022-11-20T07:51:12;149.60;;;88.50;;
57297;SDS011;43147;50.972;18.210;2022-11-20T07:53:38;139.90;;;83.90;;
57297;SDS011;43147;50.972;18.210;2022-11-20T07:56:04;147.10;;;86.00;;
57297;SDS011;43147;50.972;18.210;2022-11-20T07:58:30;131.60;;;79.60;;
57297;SDS011;43147;50.972;18.210;2022-11-20T08:00:58;129.20;;;77.70;;
57297;SDS011;43147;50.972;18.210;2022-11-20T08:03:27;126.10;;;78.60;;
57297;SDS011;43147;50.972;18.210;2022-11-20T08:05:52;126.20;;;77.80;;
57297;SDS011;43147;50.972;18.210;2022-11-20T08:08:18;128.50;;;78.40;;
57297;SDS011;43147;50.972;18.210;2022-11-20T08:10:44;123.20;;;74.90;;
57297;SDS011;43147;50.972;18.210;2022-11-20T08:13:10;127.60;;;77.80;;
57297;SDS011;43147;50.972;18.210;2022-11-20T08:15:54;136.80;;;83.50;;
57297;SDS011;43147;50.972;18.210;2022-11-20T08:18:19;137.80;;;70.90;;
57297;SDS011;43147;50.972;18.210;2022-11-20T08:20:45;136.40;;;82.80;;
57297;SDS011;43147;50.972;18.210;2022-11-20T08:23:10;135.70;;;84.80;;
57297;SDS011;43147;50.972;18.210;2022-11-20T08:25:37;138.00;;;83.60;;
57297;SDS011;43147;50.972;18.210;2022-11-20T08:28:04;142.40;;;85.20;;
57297;SDS011;43147;50.972;18.210;2022-11-20T08:30:31;137.10;;;81.10;;
57297;SDS011;43147;50.972;18.210;2022-11-20T08:33:01;138.40;;;82.50;;
57297;SDS011;43147;50.972;18.210;2022-11-20T08:35:28;134.30;;;83.50;;
57297;SDS011;43147;50.972;18.210;2022-11-20T08:37:53;122.60;;;77.00;;
57297;SDS011;43147;50.972;18.210;2022-11-20T08:40:19;138.30;;;84.60;;
57297;SDS011;43147;50.972;18.210;2022-11-20T08:42:48;135.70;;;84.20;;
57297;SDS011;43147;50.972;18.210;2022-11-20T08:45:14;135.40;;;76.80;;
57297;SDS011;43147;50.972;18.210;2022-11-20T08:47:41;144.60;;;69.90;;
57297;SDS011;43147;50.972;18.210;2022-11-20T08:50:08;146.40;;;72.70;;
57297;SDS011;43147;50.972;18.210;2022-11-20T08:52:34;144.50;;;87.50;;
57297;SDS011;43147;50.972;18.210;2022-11-20T08:55:00;132.30;;;79.80;;
57297;SDS011;43147;50.972;18.210;2022-11-20T08:57:25;127.90;;;79.80;;
57297;SDS011;43147;50.972;18.210;2022-11-20T08:59:51;124.00;;;78.80;;
57297;SDS011;43147;50.972;18.210;2022-11-20T09:02:17;121.00;;;76.50;;
57297;SDS011;43147;50.972;18.210;2022-11-20T09:04:42;105.30;;;68.10;;
57297;SDS011;43147;50.972;18.210;2022-11-20T09:07:08;103.10;;;64.00;;
57297;SDS011;43147;50.972;18.210;2022-11-20T09:09:33;103.00;;;63.00;;
57297;SDS011;43147;50.972;18.210;2022-11-20T09:11:59;89.70;;;61.10;;
57297;SDS011;43147;50.972;18.210;2022-11-20T09:14:24;89.80;;;59.30;;
57297;SDS011;43147;50.972;18.210;2022-11-20T09:16:55;85.00;;;58.60;;
57297;SDS011;43147;50.972;18.210;2022-11-20T09:19:21;85.50;;;60.60;;
57297;SDS011;43147;50.972;18.210;2022-11-20T09:21:47;79.90;;;56.90;;
57297;SDS011;43147;50.972;18.210;2022-11-20T09:24:12;92.20;;;63.00;;
57297;SDS011;43147;50.972;18.210;2022-11-20T09:26:39;86.60;;;61.90;;
57297;SDS011;43147;50.972;18.210;2022-11-20T09:29:04;84.30;;;52.10;;
57297;SDS011;43147;50.972;18.210;2022-11-20T09:31:31;82.10;;;55.00;;
57297;SDS011;43147;50.972;18.210;2022-11-20T09:33:57;90.80;;;56.30;;
57297;SDS011;43147;50.972;18.210;2022-11-20T09:36:22;93.90;;;59.60;;
57297;SDS011;43147;50.972;18.210;2022-11-20T09:38:48;78.20;;;51.30;;
57297;SDS011;43147;50.972;18.210;2022-11-20T09:41:31;80.60;;;52.00;;
57297;SDS011;43147;50.972;18.210;2022-11-20T09:54:31;86.40;;;54.60;;
57297;SDS011;43147;50.972;18.210;2022-11-20T09:57:00;77.60;;;50.20;;
57297;SDS011;43147;50.972;18.210;2022-11-20T09:59:34;76.20;;;50.40;;
57297;SDS011;43147;50.972;18.210;2022-11-20T10:02:03;64.00;;;42.50;;
57297;SDS011;43147;50.972;18.210;2022-11-20T10:04:38;42.50;;;30.10;;
57297;SDS011;43147;50.972;18.210;2022-11-20T10:07:19;50.20;;;34.70;;
57297;SDS011;43147;50.972;18.210;2022-11-20T10:09:53;68.20;;;46.00;;
57297;SDS011;43147;50.972;18.210;2022-11-20T10:12:40;60.30;;;41.60;;
57297;SDS011;43147;50.972;18.210;2022-11-20T10:15:27;64.50;;;42.80;;
57297;SDS011;43147;50.972;18.210;2022-11-20T10:20:58;63.00;;;41.80;;
57297;SDS011;43147;50.972;18.210;2022-11-20T10:31:11;49.70;;;35.40;;
57297;SDS011;43147;50.972;18.210;2022-11-20T10:33:57;34.70;;;26.20;;
57297;SDS011;43147;50.972;18.210;2022-11-20T10:36:26;34.60;;;27.10;;
57297;SDS011;43147;50.972;18.210;2022-11-20T10:39:03;51.50;;;37.70;;
57297;SDS011;43147;50.972;18.210;2022-11-20T10:41:34;58.80;;;40.90;;
57297;SDS011;43147;50.972;18.210;2022-11-20T10:47:01;62.10;;;42.80;;
57297;SDS011;43147;50.972;18.210;2022-11-20T10:49:30;57.50;;;41.80;;
57297;SDS011;43147;50.972;18.210;2022-11-20T10:57:35;48.80;;;35.70;;
57297;SDS011;43147;50.972;18.210;2022-11-20T11:00:23;62.00;;;41.60;;
57297;SDS011;43147;50.972;18.210;2022-11-20T11:02:50;57.50;;;40.00;;
57297;SDS011;43147;50.972;18.210;2022-11-20T11:07:45;55.20;;;37.30;;
57297;SDS011;43147;50.972;18.210;2022-11-20T11:10:18;48.10;;;35.00;;
57297;SDS011;43147;50.972;18.210;2022-11-20T11:12:48;47.80;;;36.30;;
57297;SDS011;43147;50.972;18.210;2022-11-20T11:18:11;43.20;;;32.10;;
57297;SDS011;43147;50.972;18.210;2022-11-20T11:20:37;43.70;;;32.00;;
57297;SDS011;43147;50.972;18.210;2022-11-20T11:23:03;44.30;;;31.70;;
57297;SDS011;43147;50.972;18.210;2022-11-20T11:25:30;42.20;;;31.30;;
57297;SDS011;43147;50.972;18.210;2022-11-20T11:28:17;43.80;;;32.90;;
57297;SDS011;43147;50.972;18.210;2022-11-20T11:30:45;46.10;;;34.10;;
57297;SDS011;43147;50.972;18.210;2022-11-20T11:33:24;49.20;;;35.50;;
57297;SDS011;43147;50.972;18.210;2022-11-20T11:35:51;51.60;;;35.50;;
57297;SDS011;43147;50.972;18.210;2022-11-20T11:38:22;50.70;;;34.70;;
57297;SDS011;43147;50.972;18.210;2022-11-20T11:43:22;46.00;;;32.20;;
57297;SDS011;43147;50.972;18.210;2022-11-20T11:46:22;42.60;;;32.00;;
57297;SDS011;43147;50.972;18.210;2022-11-20T11:48:57;53.30;;;36.20;;
57297;SDS011;43147;50.972;18.210;2022-11-20T11:51:26;47.70;;;35.70;;
57297;SDS011;43147;50.972;18.210;2022-11-20T11:53:55;44.10;;;31.80;;
57297;SDS011;43147;50.972;18.210;2022-11-20T11:56:26;46.10;;;31.60;;
57297;SDS011;43147;50.972;18.210;2022-11-20T11:58:53;46.50;;;34.20;;
57297;SDS011;43147;50.972;18.210;2022-11-20T12:09:52;57.50;;;37.90;;
57297;SDS011;43147;50.972;18.210;2022-11-20T12:12:20;50.70;;;36.70;;
57297;SDS011;43147;50.972;18.210;2022-11-20T12:14:50;60.20;;;40.40;;
57297;SDS011;43147;50.972;18.210;2022-11-20T12:17:18;54.90;;;39.30;;
57297;SDS011;43147;50.972;18.210;2022-11-20T12:19:46;68.20;;;46.80;;
57297;SDS011;43147;50.972;18.210;2022-11-20T12:25:07;69.50;;;45.40;;
57297;SDS011;43147;50.972;18.210;2022-11-20T12:27:43;79.40;;;51.30;;
57297;SDS011;43147;50.972;18.210;2022-11-20T12:30:16;74.20;;;48.20;;
57297;SDS011;43147;50.972;18.210;2022-11-20T12:32:59;83.10;;;53.80;;
57297;SDS011;43147;50.972;18.210;2022-11-20T12:38:56;46.70;;;28.10;;
57297;SDS011;43147;50.972;18.210;2022-11-20T12:45:02;42.70;;;22.50;;
57297;SDS011;43147;50.972;18.210;2022-11-20T12:55:42;46.60;;;22.60;;
57297;SDS011;43147;50.972;18.210;2022-11-20T12:58:15;39.80;;;20.30;;
57297;SDS011;43147;50.972;18.210;2022-11-20T13:00:47;38.50;;;19.10;;
57297;SDS011;43147;50.972;18.210;2022-11-20T13:06:11;54.40;;;24.30;;
57297;SDS011;43147;50.972;18.210;2022-11-20T13:08:40;42.70;;;20.10;;
57297;SDS011;43147;50.972;18.210;2022-11-20T13:11:10;45.90;;;22.50;;
57297;SDS011;43147;50.972;18.210;2022-11-20T13:18:50;53.40;;;25.10;;
57297;SDS011;43147;50.972;18.210;2022-11-20T13:21:21;53.20;;;25.20;;
57297;SDS011;43147;50.972;18.210;2022-11-20T13:23:48;55.50;;;25.80;;
57297;SDS011;43147;50.972;18.210;2022-11-20T13:26:16;64.10;;;29.20;;
57297;SDS011;43147;50.972;18.210;2022-11-20T13:28:45;58.70;;;27.00;;
57297;SDS011;43147;50.972;18.210;2022-11-20T13:31:24;60.50;;;28.00;;
57297;SDS011;43147;50.972;18.210;2022-11-20T13:33:54;73.20;;;33.80;;
57297;SDS011;43147;50.972;18.210;2022-11-20T13:36:22;69.70;;;34.10;;
57297;SDS011;43147;50.972;18.210;2022-11-20T13:38:50;84.90;;;37.00;;
57297;SDS011;43147;50.972;18.210;2022-11-20T13:41:26;85.10;;;34.10;;
57297;SDS011;43147;50.972;18.210;2022-11-20T13:43:54;92.70;;;37.80;;
57297;SDS011;43147;50.972;18.210;2022-11-20T13:46:40;100.80;;;39.30;;
57297;SDS011;43147;50.972;18.210;2022-11-20T13:49:10;94.50;;;39.50;;
57297;SDS011;43147;50.972;18.210;2022-11-20T13:52:03;101.20;;;38.50;;
57297;SDS011;43147;50.972;18.210;2022-11-20T13:54:57;106.80;;;38.70;;
57297;SDS011;43147;50.972;18.210;2022-11-20T14:00:15;111.30;;;39.90;;
57297;SDS011;43147;50.972;18.210;2022-11-20T14:02:43;104.20;;;40.40;;
57297;SDS011;43147;50.972;18.210;2022-11-20T14:05:18;121.90;;;43.50;;
57297;SDS011;43147;50.972;18.210;2022-11-20T14:07:45;113.40;;;39.60;;
57297;SDS011;43147;50.972;18.210;2022-11-20T14:10:23;102.70;;;38.10;;
57297;SDS011;43147;50.972;18.210;2022-11-20T14:12:53;108.80;;;39.20;;
57297;SDS011;43147;50.972;18.210;2022-11-20T14:17:57;112.80;;;38.10;;
57297;SDS011;43147;50.972;18.210;2022-11-20T14:20:24;131.90;;;40.50;;
57297;SDS011;43147;50.972;18.210;2022-11-20T14:22:53;180.90;;;49.10;;
57297;SDS011;43147;50.972;18.210;2022-11-20T14:25:20;199.70;;;50.90;;
57297;SDS011;43147;50.972;18.210;2022-11-20T14:27:57;184.40;;;50.70;;
57297;SDS011;43147;50.972;18.210;2022-11-20T14:30:43;167.80;;;49.20;;
57297;SDS011;43147;50.972;18.210;2022-11-20T14:33:10;172.70;;;49.50;;
57297;SDS011;43147;50.972;18.210;2022-11-20T14:35:40;180.00;;;47.20;;
57297;SDS011;43147;50.972;18.210;2022-11-20T14:40:39;192.80;;;49.30;;
57297;SDS011;43147;50.972;18.210;2022-11-20T14:43:16;200.10;;;52.60;;
57297;SDS011;43147;50.972;18.210;2022-11-20T14:45:43;183.50;;;49.60;;
57297;SDS011;43147;50.972;18.210;2022-11-20T14:48:10;208.50;;;54.80;;
57297;SDS011;43147;50.972;18.210;2022-11-20T14:50:37;181.70;;;50.40;;
57297;SDS011;43147;50.972;18.210;2022-11-20T14:53:03;158.80;;;52.70;;
57297;SDS011;43147;50.972;18.210;2022-11-20T14:55:33;155.20;;;51.70;;
57297;SDS011;43147;50.972;18.210;2022-11-20T15:00:29;147.40;;;50.60;;
57297;SDS011;43147;50.972;18.210;2022-11-20T15:02:56;159.00;;;55.50;;
57297;SDS011;43147;50.972;18.210;2022-11-20T15:05:23;143.00;;;50.00;;
57297;SDS011;43147;50.972;18.210;2022-11-20T15:08:03;152.90;;;50.50;;
57297;SDS011;43147;50.972;18.210;2022-11-20T15:10:31;144.80;;;48.80;;
57297;SDS011;43147;50.972;18.210;2022-11-20T15:13:00;138.00;;;49.80;;
57297;SDS011;43147;50.972;18.210;2022-11-20T15:15:32;145.10;;;47.40;;
57297;SDS011;43147;50.972;18.210;2022-11-20T15:18:04;146.10;;;46.00;;
57297;SDS011;43147;50.972;18.210;2022-11-20T15:20:31;118.70;;;39.40;;
57297;SDS011;43147;50.972;18.210;2022-11-20T15:22:57;118.80;;;36.80;;
57297;SDS011;43147;50.972;18.210;2022-11-20T15:25:25;109.70;;;37.10;;
57297;SDS011;43147;50.972;18.210;2022-11-20T15:27:52;107.00;;;34.70;;
57297;SDS011;43147;50.972;18.210;2022-11-20T15:30:21;112.40;;;38.70;;
57297;SDS011;43147;50.972;18.210;2022-11-20T15:32:47;118.10;;;40.70;;
57297;SDS011;43147;50.972;18.210;2022-11-20T15:35:13;104.70;;;41.00;;
57297;SDS011;43147;50.972;18.210;2022-11-20T15:37:40;114.90;;;45.10;;
57297;SDS011;43147;50.972;18.210;2022-11-20T15:40:06;135.10;;;49.10;;